Time;durP1;ratioP1;P1;durP2;ratioP2;P2;SDS_P1;SDS_P2;PMS_P1;PMS_P2;Temp;Humidity;BMP_temperature;BMP_pressure;BME280_temperature;BME280_humidity;BME280_pressure;Samples;Min_cycle;Max_cycle;Signal;HPM_P1;HPM_P2
2022/08/10 00:02:31;;;;;;;1.00;1.00;;;28.80;28.60;;;;;;5107380;27;45331;-70
2022/08/10 00:04:59;;;;;;;1.30;1.20;;;28.70;28.50;;;;;;5110009;27;45363;-71
2022/08/10 00:07:26;;;;;;;1.48;1.08;;;28.70;28.60;;;;;;5109731;27;45233;-70
2022/08/10 00:09:53;;;;;;;1.17;1.08;;;28.70;28.80;;;;;;5109686;27;45309;-71
2022/08/10 00:12:20;;;;;;;1.30;1.10;;;28.70;28.80;;;;;;5109859;27;45146;-71
2022/08/10 00:14:47;;;;;;;1.10;1.00;;;28.70;28.70;;;;;;5109756;27;45391;-71
2022/08/10 00:17:14;;;;;;;1.00;1.00;;;28.60;28.70;;;;;;5108364;27;45528;-70
2022/08/10 00:19:40;;;;;;;1.20;1.10;;;28.60;28.70;;;;;;5109403;27;45217;-71
2022/08/10 00:22:10;;;;;;;0.90;0.90;;;28.60;28.90;;;;;;5109668;27;45280;-70
2022/08/10 00:24:37;;;;;;;1.05;1.00;;;28.60;28.90;;;;;;5109799;27;45172;-71
2022/08/10 00:27:04;;;;;;;1.20;1.10;;;28.60;28.90;;;;;;5109449;27;45240;-70
2022/08/10 00:29:31;;;;;;;1.35;1.20;;;28.50;28.80;;;;;;5113896;27;45229;-70
2022/08/10 00:31:57;;;;;;;1.70;1.15;;;28.50;28.90;;;;;;5130217;27;45420;-71
2022/08/10 00:34:24;;;;;;;1.25;1.15;;;28.50;28.90;;;;;;5129723;27;45304;-70
2022/08/10 00:36:51;;;;;;;1.25;1.15;;;28.50;28.90;;;;;;5129395;27;45234;-71
2022/08/10 00:39:19;;;;;;;1.10;1.00;;;28.40;28.90;;;;;;5129738;27;45190;-70
2022/08/10 00:41:46;;;;;;;1.83;1.17;;;28.40;28.90;;;;;;5130026;27;45281;-70
2022/08/10 00:44:13;;;;;;;1.38;0.93;;;28.40;29.00;;;;;;5111976;27;45323;-70
2022/08/10 00:46:39;;;;;;;0.98;0.98;;;28.40;29.00;;;;;;5108995;27;46303;-70
2022/08/10 00:49:06;;;;;;;1.00;0.98;;;28.30;28.90;;;;;;5109113;27;45142;-70
2022/08/10 00:51:33;;;;;;;1.05;1.00;;;28.30;28.90;;;;;;5109161;27;45204;-70
2022/08/10 00:54:00;;;;;;;1.42;1.10;;;28.30;29.00;;;;;;5109261;27;45445;-70
2022/08/10 00:56:28;;;;;;;0.95;0.95;;;28.30;29.00;;;;;;5108783;27;46409;-70
2022/08/10 00:58:55;;;;;;;1.00;1.00;;;28.30;29.00;;;;;;5108853;27;45289;-70
2022/08/10 01:01:22;;;;;;;1.85;1.15;;;28.30;29.00;;;;;;5108919;27;45249;-70
2022/08/10 01:03:48;;;;;;;1.00;1.00;;;28.20;29.10;;;;;;5109356;27;45181;-70
2022/08/10 01:06:18;;;;;;;1.27;1.20;;;28.20;29.10;;;;;;5108575;27;46519;-70
2022/08/10 01:08:47;;;;;;;1.10;1.00;;;28.20;29.00;;;;;;5108739;27;45192;-70
2022/08/10 01:11:17;;;;;;;1.45;1.20;;;28.20;29.20;;;;;;5108816;27;45183;-70
2022/08/10 01:13:48;;;;;;;1.40;1.30;;;28.20;29.10;;;;;;5108825;27;45339;-70
2022/08/10 01:16:18;;;;;;;1.20;1.10;;;28.10;29.30;;;;;;5108424;27;45256;-70
2022/08/10 01:18:48;;;;;;;1.38;1.10;;;28.20;29.20;;;;;;5108632;27;45354;-70
2022/08/10 01:21:45;;;;;;;0.98;0.98;;;28.10;29.20;;;;;;5108639;27;45297;-71
2022/08/10 01:24:49;;;;;;;1.10;1.10;;;28.10;29.20;;;;;;5108662;27;45496;-71
2022/08/10 01:27:21;;;;;;;1.00;1.00;;;28.10;29.30;;;;;;5045062;28;47490;-70
2022/08/10 01:30:03;;;;;;;1.13;0.93;;;28.00;29.30;;;;;;5102235;27;45224;-70
2022/08/10 01:32:40;;;;;;;1.30;1.20;;;28.00;29.30;;;;;;5128883;27;45256;-71
2022/08/10 01:35:12;;;;;;;0.95;0.95;;;28.00;29.30;;;;;;5129023;27;45225;-70
2022/08/10 01:37:45;;;;;;;1.88;1.20;;;27.90;29.40;;;;;;5128611;27;48657;-70
2022/08/10 01:40:13;;;;;;;1.00;0.98;;;27.90;29.30;;;;;;5128631;27;45293;-70
2022/08/10 01:42:40;;;;;;;0.93;0.90;;;27.90;29.40;;;;;;5124125;27;45274;-70
2022/08/10 01:45:09;;;;;;;0.82;0.82;;;27.90;29.40;;;;;;5108301;27;45173;-70
2022/08/10 01:50:25;;;;;;;1.38;1.27;;;27.90;29.40;;;;;;5105335;27;45398;-70
2022/08/10 01:52:52;;;;;;;1.25;1.15;;;27.80;29.40;;;;;;5108004;27;45130;-70
2022/08/10 01:55:19;;;;;;;1.00;1.00;;;27.80;29.50;;;;;;5108101;27;45130;-70
2022/08/10 01:57:46;;;;;;;1.08;1.08;;;27.80;29.50;;;;;;5107647;27;45331;-70
2022/08/10 02:00:15;;;;;;;1.15;1.15;;;27.80;29.50;;;;;;5107680;27;45290;-70
2022/08/10 02:02:42;;;;;;;0.80;0.80;;;27.80;29.40;;;;;;5107978;27;45271;-70
2022/08/10 02:05:09;;;;;;;1.38;1.25;;;27.80;29.50;;;;;;5107820;27;45214;-70
2022/08/10 02:07:36;;;;;;;1.00;1.00;;;27.80;29.60;;;;;;5107328;27;45322;-70
2022/08/10 02:10:04;;;;;;;1.60;1.17;;;27.70;29.50;;;;;;5107738;27;45225;-70
2022/08/10 02:12:32;;;;;;;1.00;1.00;;;27.70;29.70;;;;;;5107830;27;45256;-70
2022/08/10 02:14:59;;;;;;;1.20;1.10;;;27.70;29.70;;;;;;5107903;27;45386;-70
2022/08/10 02:17:30;;;;;;;1.17;1.10;;;27.70;29.70;;;;;;5104950;27;45267;-70
2022/08/10 02:19:58;;;;;;;1.25;1.15;;;27.70;29.70;;;;;;5107466;27;45126;-70
2022/08/10 02:22:25;;;;;;;0.90;0.90;;;27.60;29.70;;;;;;5107723;27;45137;-70
2022/08/10 02:24:52;;;;;;;0.85;0.85;;;27.60;29.70;;;;;;5107662;27;45449;-70
2022/08/10 02:27:19;;;;;;;1.33;1.30;;;27.60;29.70;;;;;;5107192;27;45669;-70
2022/08/10 02:29:45;;;;;;;1.20;1.10;;;27.60;29.80;;;;;;5113976;27;45339;-70
2022/08/10 02:32:12;;;;;;;0.82;0.82;;;27.60;29.80;;;;;;5128145;27;45199;-70
2022/08/10 02:34:40;;;;;;;1.00;1.00;;;27.60;29.80;;;;;;5128282;27;45315;-71
2022/08/10 02:37:07;;;;;;;0.90;0.90;;;27.60;29.90;;;;;;5127494;27;45548;-70
2022/08/10 02:39:35;;;;;;;1.10;1.10;;;27.60;29.90;;;;;;5127877;27;45361;-71
2022/08/10 02:42:03;;;;;;;0.90;0.90;;;27.60;29.90;;;;;;5127393;27;45365;-71
2022/08/10 02:44:33;;;;;;;1.00;1.00;;;27.60;30.00;;;;;;5107846;27;45177;-71
2022/08/10 02:47:02;;;;;;;1.10;1.10;;;27.60;29.90;;;;;;5106813;27;46372;-71
2022/08/10 02:49:32;;;;;;;1.13;1.00;;;27.50;29.90;;;;;;5107187;27;45185;-71
2022/08/10 02:52:03;;;;;;;1.30;1.20;;;27.50;29.90;;;;;;5107233;27;45319;-70
2022/08/10 02:54:32;;;;;;;1.02;1.02;;;27.50;30.00;;;;;;5107199;27;45411;-71
2022/08/10 02:57:02;;;;;;;0.95;0.95;;;27.50;30.00;;;;;;5106653;27;45237;-71
2022/08/10 02:59:31;;;;;;;1.00;1.00;;;27.50;30.00;;;;;;5106590;27;45169;-70
2022/08/10 03:02:00;;;;;;;1.90;1.20;;;27.50;30.00;;;;;;5106857;27;45309;-70
2022/08/10 03:04:29;;;;;;;1.10;1.10;;;27.50;30.00;;;;;;5107054;27;45280;-70
2022/08/10 03:06:58;;;;;;;1.92;1.05;;;27.50;30.00;;;;;;5106756;27;45214;-70
2022/08/10 03:09:26;;;;;;;1.20;1.15;;;27.50;30.00;;;;;;5106850;27;45336;-70
2022/08/10 03:11:53;;;;;;;0.80;0.80;;;27.50;30.10;;;;;;5106647;27;45169;-70
2022/08/10 03:14:20;;;;;;;0.90;0.90;;;27.40;30.00;;;;;;5106964;27;45226;-70
2022/08/10 03:16:46;;;;;;;1.10;1.10;;;27.40;30.10;;;;;;5106540;27;45739;-70
2022/08/10 03:19:13;;;;;;;1.00;1.00;;;27.40;30.20;;;;;;5106697;27;45364;-70
2022/08/10 03:21:40;;;;;;;1.10;1.10;;;27.40;30.70;;;;;;5106597;27;45324;-70
2022/08/10 03:24:07;;;;;;;1.10;1.02;;;27.40;30.20;;;;;;5106842;27;45331;-70
2022/08/10 03:26:35;;;;;;;1.52;1.08;;;27.40;30.20;;;;;;5106478;27;45197;-70
2022/08/10 03:29:03;;;;;;;1.10;1.10;;;27.40;30.10;;;;;;5106735;27;45305;-70
2022/08/10 03:31:30;;;;;;;1.00;0.90;;;27.40;30.20;;;;;;5126820;27;45236;-70
2022/08/10 03:33:57;;;;;;;1.20;1.10;;;27.40;30.30;;;;;;5127506;27;45252;-70
2022/08/10 03:36:24;;;;;;;0.90;0.90;;;27.40;30.30;;;;;;5126766;27;46404;-70
2022/08/10 03:38:51;;;;;;;0.90;0.90;;;27.40;30.40;;;;;;5127094;27;45182;-70
2022/08/10 03:41:20;;;;;;;0.98;0.98;;;27.40;30.30;;;;;;5127331;27;45284;-71
2022/08/10 03:43:48;;;;;;;1.23;0.90;;;27.40;30.40;;;;;;5113061;27;45251;-71
2022/08/10 03:46:16;;;;;;;1.05;1.00;;;27.40;30.30;;;;;;5106296;27;47331;-71
2022/08/10 03:48:42;;;;;;;1.20;1.10;;;27.30;30.40;;;;;;5106057;27;45270;-70
2022/08/10 03:51:09;;;;;;;0.90;0.90;;;27.30;30.30;;;;;;5106641;27;45361;-70
2022/08/10 03:53:36;;;;;;;1.15;0.98;;;27.30;30.40;;;;;;5110077;27;45406;-70
2022/08/10 03:56:03;;;;;;;1.40;1.30;;;27.30;30.40;;;;;;5109591;27;45276;-70
2022/08/10 03:58:30;;;;;;;1.13;1.13;;;27.30;30.40;;;;;;5110064;27;45530;-70
2022/08/10 04:00:58;;;;;;;1.17;1.17;;;27.30;30.50;;;;;;5109992;27;45138;-70
2022/08/10 04:03:25;;;;;;;0.80;0.80;;;27.30;30.50;;;;;;5110051;27;45299;-70
2022/08/10 04:05:52;;;;;;;0.90;0.90;;;27.30;30.60;;;;;;5109824;27;46429;-70
2022/08/10 04:08:19;;;;;;;1.00;1.00;;;27.30;30.50;;;;;;5109485;27;45262;-70
2022/08/10 04:10:45;;;;;;;1.23;1.13;;;27.30;30.60;;;;;;5109637;27;45194;-70
2022/08/10 04:13:12;;;;;;;1.30;1.20;;;27.30;30.60;;;;;;5109810;27;45252;-70
2022/08/10 04:15:39;;;;;;;1.35;1.05;;;27.20;30.50;;;;;;5109327;27;47381;-71
2022/08/10 04:18:07;;;;;;;1.10;1.10;;;27.20;30.60;;;;;;5109492;27;45260;-70
2022/08/10 04:20:37;;;;;;;1.23;1.10;;;27.20;30.60;;;;;;5109505;27;45216;-70
2022/08/10 04:23:08;;;;;;;1.30;1.20;;;27.20;30.60;;;;;;5109594;27;45359;-70
2022/08/10 04:25:35;;;;;;;1.63;1.52;;;27.20;30.60;;;;;;5109284;27;46392;-70
2022/08/10 04:28:03;;;;;;;1.63;1.52;;;27.20;30.70;;;;;;5109264;27;45144;-70
2022/08/10 04:30:30;;;;;;;1.70;1.60;;;27.20;30.70;;;;;;5122239;27;45430;-70
2022/08/10 04:32:57;;;;;;;2.20;1.50;;;27.20;31.30;;;;;;5130289;27;45372;-70
2022/08/10 04:35:26;;;;;;;1.90;1.55;;;27.10;30.70;;;;;;5129275;27;46339;-70
2022/08/10 04:37:52;;;;;;;2.03;1.65;;;27.10;30.70;;;;;;5129349;27;45156;-70
2022/08/10 04:40:19;;;;;;;1.85;1.45;;;27.10;30.70;;;;;;5129863;27;45301;-70
2022/08/10 04:42:46;;;;;;;1.42;1.33;;;27.10;30.80;;;;;;5124395;27;45298;-70
2022/08/10 04:45:13;;;;;;;2.22;1.70;;;27.10;30.90;;;;;;5108854;27;46470;-70
2022/08/10 04:47:40;;;;;;;2.00;1.77;;;27.10;30.80;;;;;;5108974;27;45181;-70
2022/08/10 04:50:07;;;;;;;2.80;1.70;;;27.10;31.00;;;;;;5108877;27;45186;-70
2022/08/10 04:52:35;;;;;;;1.90;1.80;;;27.10;30.90;;;;;;5109069;27;45235;-70
2022/08/10 04:55:02;;;;;;;2.05;1.83;;;27.00;30.90;;;;;;5108722;27;45240;-71
2022/08/10 04:57:29;;;;;;;2.80;1.83;;;27.00;30.80;;;;;;5108712;27;45309;-71
2022/08/10 04:59:56;;;;;;;2.15;1.95;;;27.00;31.00;;;;;;5108842;27;45126;-71
2022/08/10 05:02:23;;;;;;;2.72;1.77;;;27.00;31.10;;;;;;5109063;27;45302;-70
2022/08/10 05:04:50;;;;;;;2.50;1.80;;;27.00;31.10;;;;;;5107962;27;46563;-70
2022/08/10 05:07:16;;;;;;;2.03;1.80;;;26.90;31.00;;;;;;5108641;27;45267;-70
2022/08/10 05:09:45;;;;;;;2.80;1.98;;;27.00;31.20;;;;;;5108872;27;45119;-70
2022/08/10 05:12:11;;;;;;;1.70;1.60;;;26.90;31.10;;;;;;5108818;27;45512;-70
2022/08/10 05:14:38;;;;;;;1.63;1.52;;;26.90;31.10;;;;;;5108540;27;45363;-70
2022/08/10 05:17:05;;;;;;;2.67;1.90;;;26.90;31.10;;;;;;5108322;27;45320;-70
2022/08/10 05:19:32;;;;;;;2.55;1.70;;;26.90;31.20;;;;;;5108583;27;45267;-70
2022/08/10 05:21:59;;;;;;;2.30;1.77;;;26.80;31.10;;;;;;5108406;27;45526;-70
2022/08/10 05:24:26;;;;;;;3.03;1.92;;;26.90;31.20;;;;;;5108354;27;45465;-70
2022/08/10 05:26:54;;;;;;;2.55;1.80;;;26.80;31.20;;;;;;5108302;27;45180;-70
2022/08/10 05:29:21;;;;;;;2.03;1.60;;;26.80;31.30;;;;;;5111610;27;45317;-70
2022/08/10 05:31:47;;;;;;;2.10;1.80;;;26.80;31.20;;;;;;5129056;27;45300;-71
2022/08/10 05:34:15;;;;;;;1.73;1.60;;;26.80;31.20;;;;;;5128725;27;45251;-70
2022/08/10 05:36:42;;;;;;;2.92;1.85;;;26.70;31.30;;;;;;5128113;27;45255;-70
2022/08/10 05:39:09;;;;;;;2.00;1.70;;;26.70;31.30;;;;;;5128923;27;45314;-70
2022/08/10 05:41:36;;;;;;;2.85;1.83;;;26.70;31.40;;;;;;5128872;27;45299;-71
2022/08/10 05:44:04;;;;;;;2.30;1.73;;;26.70;31.50;;;;;;5112117;27;45616;-70
2022/08/10 05:46:31;;;;;;;1.77;1.67;;;26.70;31.50;;;;;;5107929;27;45291;-70
2022/08/10 05:48:58;;;;;;;2.97;1.70;;;26.70;31.50;;;;;;5107962;27;45133;-70
2022/08/10 05:51:25;;;;;;;2.45;1.90;;;26.70;31.50;;;;;;5108176;27;45443;-70
2022/08/10 05:53:52;;;;;;;1.92;1.67;;;26.70;31.40;;;;;;5107833;27;45256;-70
2022/08/10 05:56:18;;;;;;;2.75;1.75;;;26.70;31.40;;;;;;5107923;27;45240;-70
2022/08/10 05:58:45;;;;;;;2.00;1.80;;;26.70;31.40;;;;;;5107893;27;45227;-70
2022/08/10 06:01:14;;;;;;;2.88;1.55;;;26.70;31.40;;;;;;5108011;27;45379;-70
2022/08/10 06:03:46;;;;;;;3.10;1.92;;;26.70;31.50;;;;;;5107404;27;46627;-70
2022/08/10 06:06:13;;;;;;;1.67;1.58;;;26.70;31.50;;;;;;5113125;27;45438;-70
2022/08/10 06:08:41;;;;;;;2.35;1.58;;;26.70;31.50;;;;;;5126246;27;45303;-70
2022/08/10 06:11:08;;;;;;;4.35;1.50;;;26.70;31.70;;;;;;5125849;27;45489;-70
2022/08/10 06:16:21;;;;;;;4.70;1.77;;;26.70;32.10;;;;;;5124086;27;45364;-71
2022/08/10 06:18:48;;;;;;;2.53;1.63;;;26.70;32.20;;;;;;5128039;27;45156;-71
2022/08/10 06:21:15;;;;;;;1.85;1.60;;;26.70;32.30;;;;;;5127602;27;45303;-70
2022/08/10 06:23:42;;;;;;;2.63;1.60;;;26.70;32.20;;;;;;5127552;27;45386;-70
2022/08/10 06:26:08;;;;;;;3.33;1.55;;;26.70;32.20;;;;;;5127593;27;45616;-70
2022/08/10 06:28:37;;;;;;;3.03;1.70;;;26.70;32.10;;;;;;5127124;27;45420;-71
2022/08/10 06:31:05;;;;;;;3.63;1.73;;;26.70;32.10;;;;;;5114543;27;45201;-71
2022/08/10 06:33:35;;;;;;;2.85;1.60;;;26.70;32.10;;;;;;5126083;27;46544;-70
2022/08/10 06:36:03;;;;;;;1.70;1.60;;;26.70;32.10;;;;;;5126344;27;45219;-71
2022/08/10 06:38:31;;;;;;;3.97;1.60;;;26.70;32.10;;;;;;5127099;27;45243;-71
2022/08/10 06:40:59;;;;;;;2.53;1.52;;;26.70;32.00;;;;;;5127019;27;45226;-71
2022/08/10 06:43:26;;;;;;;2.80;1.77;;;26.80;32.10;;;;;;5125615;27;45218;-71
2022/08/10 06:45:55;;;;;;;3.17;1.70;;;26.70;32.00;;;;;;5126668;27;45148;-70
2022/08/10 06:48:25;;;;;;;4.28;1.60;;;26.80;32.50;;;;;;5123541;27;45450;-70
2022/08/10 06:50:54;;;;;;;2.03;1.45;;;26.70;33.60;;;;;;5125343;27;45557;-70
2022/08/10 06:53:21;;;;;;;3.45;1.52;;;26.70;34.20;;;;;;5124864;27;46670;-71
2022/08/10 06:55:51;;;;;;;2.17;1.63;;;26.70;34.80;;;;;;5122939;27;45462;-70
2022/08/10 06:58:19;;;;;;;6.95;1.50;;;26.70;34.90;;;;;;5126347;27;45171;-70
2022/08/10 07:00:46;;;;;;;1.77;1.50;;;26.60;35.30;;;;;;5126769;27;45563;-69
2022/08/10 07:03:14;;;;;;;3.03;1.35;;;26.60;35.50;;;;;;5127131;27;46377;-70
2022/08/10 07:05:42;;;;;;;2.17;1.73;;;26.60;35.60;;;;;;5126241;27;45247;-70
2022/08/10 07:08:11;;;;;;;4.18;1.73;;;26.70;35.80;;;;;;5127375;27;45357;-69
2022/08/10 07:10:37;;;;;;;1.58;1.40;;;26.60;36.60;;;;;;5125761;27;45280;-71
2022/08/10 07:13:05;;;;;;;4.03;1.77;;;26.60;35.90;;;;;;5124335;27;46377;-70
2022/08/10 07:15:32;;;;;;;4.03;1.70;;;26.60;36.00;;;;;;5125861;27;45506;-70
2022/08/10 07:17:59;;;;;;;2.20;1.55;;;26.60;36.10;;;;;;5126062;27;45105;-70
2022/08/10 07:20:25;;;;;;;1.70;1.60;;;26.70;36.20;;;;;;5122148;27;45394;-71
2022/08/10 07:22:53;;;;;;;3.08;1.50;;;26.70;36.00;;;;;;5126269;27;46736;-70
2022/08/10 07:25:23;;;;;;;2.30;1.50;;;26.70;35.80;;;;;;5126073;27;45232;-71
2022/08/10 07:27:50;;;;;;;5.95;1.65;;;26.70;35.40;;;;;;5128976;27;45334;-70
2022/08/10 07:30:17;;;;;;;3.80;1.63;;;26.80;35.70;;;;;;5129853;27;45623;-71
2022/08/10 07:32:44;;;;;;;2.85;1.45;;;26.80;35.60;;;;;;5130100;27;45231;-71
2022/08/10 07:35:13;;;;;;;2.85;1.75;;;26.90;35.40;;;;;;5127710;27;45253;-72
2022/08/10 07:37:40;;;;;;;2.75;1.40;;;26.90;35.20;;;;;;5128468;27;45472;-72
2022/08/10 07:40:07;;;;;;;4.03;1.58;;;26.90;35.10;;;;;;5126441;27;45366;-72
2022/08/10 07:42:35;;;;;;;3.22;1.65;;;26.90;35.00;;;;;;5113886;27;46374;-72
2022/08/10 07:45:05;;;;;;;1.50;1.40;;;27.00;34.90;;;;;;5130670;27;45198;-71
2022/08/10 07:47:33;;;;;;;3.28;1.65;;;27.00;34.80;;;;;;5130932;27;45258;-71
2022/08/10 07:50:02;;;;;;;2.88;1.83;;;27.00;34.90;;;;;;5131233;27;45401;-71
2022/08/10 07:52:29;;;;;;;3.28;1.48;;;27.00;34.80;;;;;;5130538;27;46778;-71
2022/08/10 07:54:56;;;;;;;4.70;1.50;;;27.00;34.80;;;;;;5127671;27;45330;-71
2022/08/10 07:57:24;;;;;;;2.30;1.40;;;27.00;34.80;;;;;;5130298;27;45275;-72
2022/08/10 07:59:55;;;;;;;3.88;1.30;;;27.00;34.70;;;;;;5131036;27;45189;-72
2022/08/10 08:02:24;;;;;;;1.40;1.30;;;27.10;34.80;;;;;;5130655;27;46443;-72
2022/08/10 08:04:51;;;;;;;2.17;1.33;;;27.10;34.70;;;;;;5130407;27;45202;-71
2022/08/10 08:07:18;;;;;;;1.50;1.38;;;27.10;34.60;;;;;;5130625;27;45202;-72
2022/08/10 08:09:45;;;;;;;1.60;1.20;;;27.10;34.50;;;;;;5131214;27;45227;-72
2022/08/10 08:12:12;;;;;;;3.13;1.50;;;27.10;34.50;;;;;;5130112;27;45438;-72
2022/08/10 08:14:40;;;;;;;1.88;1.20;;;27.20;34.40;;;;;;5130457;27;45347;-71
2022/08/10 08:17:08;;;;;;;2.13;1.27;;;27.20;33.90;;;;;;5130357;27;45227;-71
2022/08/10 08:19:35;;;;;;;1.63;1.33;;;27.20;33.50;;;;;;5130674;27;45437;-72
2022/08/10 08:22:02;;;;;;;1.95;1.10;;;27.20;33.30;;;;;;5130104;27;45239;-72
2022/08/10 08:24:29;;;;;;;2.58;1.30;;;27.30;33.10;;;;;;5130268;27;45320;-71
2022/08/10 08:26:55;;;;;;;1.85;1.45;;;27.30;32.80;;;;;;5130042;27;45176;-71
2022/08/10 08:29:22;;;;;;;1.75;1.17;;;27.40;32.80;;;;;;5126881;27;45393;-71
2022/08/10 08:31:49;;;;;;;1.27;1.17;;;27.40;32.60;;;;;;5109385;27;45198;-72
2022/08/10 08:34:17;;;;;;;2.05;1.08;;;27.40;32.50;;;;;;5109254;27;45320;-72
2022/08/10 08:36:44;;;;;;;1.48;1.25;;;27.40;32.40;;;;;;5109492;27;45319;-72
2022/08/10 08:39:11;;;;;;;1.42;1.33;;;27.50;32.50;;;;;;5108543;27;45185;-72
2022/08/10 08:42:02;;;;;;;1.20;1.10;;;27.50;32.40;;;;;;5109309;27;46616;-72
2022/08/10 08:44:35;;;;;;;2.60;1.15;;;27.50;32.20;;;;;;5129318;27;45393;-72
2022/08/10 08:47:20;;;;;;;1.40;1.30;;;27.60;32.20;;;;;;5127517;27;45308;-72
2022/08/10 08:50:00;;;;;;;1.55;1.35;;;27.60;32.20;;;;;;5130119;27;45307;-72
2022/08/10 08:52:31;;;;;;;1.40;1.15;;;27.70;32.10;;;;;;5129727;27;45246;-72
2022/08/10 08:55:03;;;;;;;1.42;1.20;;;27.70;32.00;;;;;;5129800;27;45360;-72
2022/08/10 08:57:36;;;;;;;4.78;1.23;;;27.70;31.80;;;;;;5129807;27;45333;-72
2022/08/10 09:00:05;;;;;;;1.00;1.00;;;27.70;31.70;;;;;;5129967;27;45121;-72
2022/08/10 09:02:40;;;;;;;1.08;1.00;;;27.80;31.70;;;;;;5129436;27;45316;-71
2022/08/10 09:05:19;;;;;;;1.85;1.20;;;27.80;31.60;;;;;;5129538;27;45332;-72
2022/08/10 09:07:57;;;;;;;1.33;1.00;;;27.90;31.60;;;;;;5129909;27;45188;-71
2022/08/10 09:10:30;;;;;;;1.58;1.25;;;27.90;31.70;;;;;;5129671;27;45141;-72
2022/08/10 09:13:00;;;;;;;1.02;1.02;;;27.90;31.60;;;;;;5129475;27;46672;-71
2022/08/10 09:15:32;;;;;;;1.23;1.13;;;28.00;31.60;;;;;;5129043;27;45402;-71
2022/08/10 09:18:07;;;;;;;1.08;0.98;;;28.00;31.50;;;;;;5129318;27;45125;-72
2022/08/10 09:20:39;;;;;;;3.58;1.60;;;28.10;31.50;;;;;;5129953;27;45596;-71
2022/08/10 09:23:10;;;;;;;1.40;1.30;;;28.10;31.50;;;;;;5129302;27;46747;-71
2022/08/10 09:25:37;;;;;;;2.10;1.08;;;28.10;31.40;;;;;;5128437;27;45296;-71
2022/08/10 09:28:05;;;;;;;1.02;1.00;;;28.20;31.30;;;;;;5128991;27;45310;-71
2022/08/10 09:30:35;;;;;;;1.00;1.00;;;28.20;31.20;;;;;;5115856;27;45255;-71
2022/08/10 09:33:05;;;;;;;1.35;1.10;;;28.20;30.90;;;;;;5108296;27;46374;-71
2022/08/10 09:35:44;;;;;;;2.00;0.93;;;28.30;30.60;;;;;;5108081;27;45142;-71
2022/08/10 09:38:13;;;;;;;1.13;1.00;;;28.30;30.50;;;;;;5108598;27;45294;-72
2022/08/10 09:40:45;;;;;;;1.30;1.20;;;28.30;30.40;;;;;;5108499;27;45383;-72
2022/08/10 09:43:18;;;;;;;1.33;1.13;;;28.30;30.30;;;;;;5117539;27;46656;-71
2022/08/10 09:45:50;;;;;;;1.77;1.15;;;28.40;30.20;;;;;;5128766;27;45198;-72
2022/08/10 09:48:22;;;;;;;1.80;1.05;;;28.30;29.90;;;;;;5128871;27;45201;-72
2022/08/10 09:50:56;;;;;;;1.42;1.10;;;28.40;29.60;;;;;;5126177;27;45342;-72
2022/08/10 09:53:30;;;;;;;1.92;1.08;;;28.40;29.40;;;;;;5129057;27;45399;-72
2022/08/10 09:55:59;;;;;;;2.47;1.20;;;28.40;29.30;;;;;;5128812;27;45359;-72
2022/08/10 09:58:34;;;;;;;1.50;1.10;;;28.50;29.50;;;;;;5129058;27;45266;-72
2022/08/10 10:01:03;;;;;;;1.05;0.98;;;28.50;29.50;;;;;;5129082;27;45634;-71
2022/08/10 10:03:31;;;;;;;2.10;1.20;;;28.60;29.60;;;;;;5128562;27;45394;-71
2022/08/10 10:06:03;;;;;;;2.22;1.30;;;28.60;29.60;;;;;;5128715;27;45320;-72
2022/08/10 10:08:32;;;;;;;1.77;1.00;;;28.70;29.50;;;;;;5128873;27;45202;-71
2022/08/10 10:11:07;;;;;;;1.67;1.00;;;28.70;29.50;;;;;;5128904;27;45348;-72
2022/08/10 10:13:39;;;;;;;1.05;1.00;;;28.70;29.50;;;;;;5127901;27;45427;-71
2022/08/10 10:16:12;;;;;;;1.10;1.10;;;28.70;29.70;;;;;;5125400;27;45186;-71
2022/08/10 10:18:42;;;;;;;1.00;0.90;;;28.70;28.90;;;;;;5123479;27;45183;-72
2022/08/10 10:21:14;;;;;;;3.63;1.02;;;28.80;28.80;;;;;;5128700;27;45285;-71
2022/08/10 10:23:46;;;;;;;0.90;0.90;;;28.80;28.90;;;;;;5128343;27;46393;-71
2022/08/10 10:26:18;;;;;;;2.28;1.00;;;28.90;29.20;;;;;;5128304;27;45236;-71
2022/08/10 10:28:50;;;;;;;1.13;1.10;;;28.80;28.30;;;;;;5127560;27;45367;-71
2022/08/10 10:31:22;;;;;;;1.73;0.93;;;28.90;28.60;;;;;;5128320;27;45221;-71
2022/08/10 10:33:58;;;;;;;1.80;1.10;;;29.00;28.90;;;;;;5127946;27;46638;-70
2022/08/10 10:36:26;;;;;;;2.22;1.25;;;29.00;29.00;;;;;;5127928;27;45125;-71
2022/08/10 10:38:53;;;;;;;2.55;0.98;;;29.10;28.30;;;;;;5127745;27;45376;-71
2022/08/10 10:41:30;;;;;;;1.02;0.75;;;29.10;28.00;;;;;;5128508;27;45585;-71
2022/08/10 10:44:03;;;;;;;3.58;1.10;;;29.20;28.10;;;;;;5112282;27;45373;-71
2022/08/10 10:46:37;;;;;;;1.92;1.00;;;29.20;27.90;;;;;;5107277;27;45272;-72
2022/08/10 10:49:14;;;;;;;1.50;1.00;;;29.30;28.00;;;;;;5107342;27;45306;-71
2022/08/10 10:51:44;;;;;;;0.95;0.88;;;29.30;27.80;;;;;;5107702;27;45445;-71
2022/08/10 10:54:15;;;;;;;1.30;1.02;;;29.30;27.90;;;;;;5106900;27;45330;-71
2022/08/10 10:56:48;;;;;;;1.00;0.90;;;29.40;27.70;;;;;;5107241;27;45254;-71
2022/08/10 10:59:19;;;;;;;1.88;1.10;;;29.40;27.50;;;;;;5107248;27;45264;-71
2022/08/10 11:01:51;;;;;;;0.90;0.90;;;29.50;27.70;;;;;;5106812;27;45129;-72
2022/08/10 11:04:20;;;;;;;1.63;1.27;;;29.50;27.70;;;;;;5106771;27;45500;-71
2022/08/10 11:06:56;;;;;;;1.40;1.00;;;29.60;27.60;;;;;;5107005;27;45328;-71
2022/08/10 11:09:24;;;;;;;1.10;0.90;;;29.60;27.40;;;;;;5107203;27;45300;-71
2022/08/10 11:11:51;;;;;;;1.02;0.93;;;29.70;27.10;;;;;;5106763;27;45399;-71
2022/08/10 11:14:23;;;;;;;1.65;1.02;;;29.80;27.10;;;;;;5106637;27;46567;-71
2022/08/10 11:16:51;;;;;;;1.35;1.13;;;29.90;27.10;;;;;;5107135;27;45329;-71
2022/08/10 11:19:19;;;;;;;1.75;0.90;;;29.90;27.10;;;;;;5106874;27;45178;-71
2022/08/10 11:21:55;;;;;;;2.08;0.90;;;30.00;27.40;;;;;;5107000;27;45411;-71
2022/08/10 11:24:25;;;;;;;0.85;0.85;;;30.10;27.20;;;;;;5106685;27;46836;-71
2022/08/10 11:26:55;;;;;;;1.27;1.00;;;30.20;27.10;;;;;;5105425;27;45291;-71
2022/08/10 11:29:25;;;;;;;1.55;1.10;;;30.20;26.80;;;;;;5110140;27;45344;-71
2022/08/10 11:31:57;;;;;;;1.58;0.82;;;30.30;26.80;;;;;;5127676;27;45238;-71
2022/08/10 11:34:30;;;;;;;0.80;0.80;;;30.20;26.90;;;;;;5127195;27;46473;-71
2022/08/10 11:37:02;;;;;;;2.70;1.00;;;30.30;26.90;;;;;;5126758;27;45307;-71
2022/08/10 11:39:33;;;;;;;1.27;0.75;;;30.50;27.00;;;;;;5127554;27;45256;-71
2022/08/10 11:42:03;;;;;;;1.42;1.10;;;30.50;26.80;;;;;;5121233;27;45220;-73
2022/08/10 11:44:31;;;;;;;0.90;0.90;;;30.60;26.70;;;;;;5121915;27;46393;-71
2022/08/10 11:47:01;;;;;;;1.15;1.05;;;30.60;26.30;;;;;;5117714;27;45241;-72
2022/08/10 11:49:30;;;;;;;1.85;1.00;;;30.60;26.00;;;;;;5118887;27;45194;-71
2022/08/10 11:52:02;;;;;;;1.70;1.05;;;30.70;25.90;;;;;;5117378;27;45594;-72
2022/08/10 11:54:31;;;;;;;1.20;1.10;;;30.80;25.80;;;;;;5106608;27;45234;-72
2022/08/10 11:56:59;;;;;;;1.00;0.95;;;30.80;26.00;;;;;;5106554;27;45493;-72
2022/08/10 12:02:18;;;;;;;1.92;1.00;;;31.00;26.00;;;;;;5104226;27;45252;-73
2022/08/10 12:04:47;;;;;;;1.60;1.05;;;31.10;25.70;;;;;;5106458;27;46516;-72
2022/08/10 12:07:16;;;;;;;1.33;1.00;;;31.20;25.70;;;;;;5106400;27;45257;-72
2022/08/10 12:09:42;;;;;;;1.75;1.13;;;31.30;25.40;;;;;;5106519;27;45128;-72
2022/08/10 12:12:10;;;;;;;2.15;0.90;;;31.30;25.00;;;;;;5103940;27;45214;-72
2022/08/10 12:14:40;;;;;;;1.40;0.90;;;31.40;24.90;;;;;;5108500;27;46746;-72
2022/08/10 12:17:09;;;;;;;0.95;0.95;;;31.50;24.80;;;;;;5109899;27;45244;-72
2022/08/10 12:19:38;;;;;;;0.80;0.80;;;31.50;24.80;;;;;;5109896;27;45252;-72
2022/08/10 12:22:07;;;;;;;0.90;0.90;;;31.60;24.50;;;;;;5110241;27;45244;-72
2022/08/10 12:24:39;;;;;;;0.98;0.95;;;31.60;24.70;;;;;;5109853;27;45546;-72
2022/08/10 12:27:09;;;;;;;4.28;1.10;;;31.70;24.60;;;;;;5109656;27;45150;-72
2022/08/10 12:29:40;;;;;;;1.20;1.10;;;31.80;24.30;;;;;;5114433;27;45389;-72
2022/08/10 12:32:12;;;;;;;1.67;0.90;;;31.80;24.50;;;;;;5129847;27;45426;-72
2022/08/10 12:34:41;;;;;;;3.60;1.13;;;31.80;24.00;;;;;;5130124;27;45494;-72
2022/08/10 12:37:15;;;;;;;2.53;1.00;;;31.90;23.60;;;;;;5129901;27;45479;-72
2022/08/10 12:39:59;;;;;;;1.02;0.90;;;32.00;24.00;;;;;;5130241;27;45181;-72
2022/08/10 12:42:29;;;;;;;1.65;0.80;;;32.00;23.70;;;;;;5127303;27;45405;-71
2022/08/10 12:45:00;;;;;;;1.45;0.80;;;32.00;23.60;;;;;;5109352;27;47294;-72
2022/08/10 12:47:31;;;;;;;1.70;0.82;;;31.90;23.60;;;;;;5109213;27;45440;-72
2022/08/10 12:50:15;;;;;;;1.20;1.00;;;31.80;23.60;;;;;;5109533;27;45207;-72
2022/08/10 12:52:46;;;;;;;1.45;0.98;;;31.90;23.60;;;;;;5109722;27;45249;-72
2022/08/10 12:55:14;;;;;;;0.90;0.90;;;31.90;23.60;;;;;;5109229;27;46658;-72
2022/08/10 12:57:41;;;;;;;1.92;1.00;;;32.00;23.80;;;;;;5109171;27;45382;-72
2022/08/10 13:00:09;;;;;;;2.10;0.90;;;32.10;24.00;;;;;;5109196;27;45276;-72
2022/08/10 13:02:38;;;;;;;1.80;1.30;;;32.20;23.80;;;;;;5109270;27;45118;-71
2022/08/10 13:05:07;;;;;;;2.13;1.00;;;32.40;23.60;;;;;;5108931;27;45244;-72
2022/08/10 13:07:35;;;;;;;3.60;0.90;;;32.30;23.20;;;;;;5108899;27;45268;-72